sensor_id;sensor_type;location;lat;lon;timestamp;pressure;altitude;pressure_sealevel;temperature;humidity
81151;BME280;70629;-26.026;27.976;2024-02-23T00:00:24;86329.22;;;22.40;67.96
81151;BME280;70629;-26.026;27.976;2024-02-23T00:01:04;86326.59;;;22.62;67.21
81151;BME280;70629;-26.026;27.976;2024-02-23T00:01:44;86334.78;;;22.58;66.72
81151;BME280;70629;-26.026;27.976;2024-02-23T00:02:24;86327.88;;;22.45;67.00
81151;BME280;70629;-26.026;27.976;2024-02-23T00:03:04;86328.63;;;22.54;66.80
81151;BME280;70629;-26.026;27.976;2024-02-23T00:03:44;86331.38;;;22.58;66.85
81151;BME280;70629;-26.026;27.976;2024-02-23T00:04:24;86330.56;;;22.37;67.19
81151;BME280;70629;-26.026;27.976;2024-02-23T00:05:04;86326.44;;;22.34;67.81
81151;BME280;70629;-26.026;27.976;2024-02-23T00:05:45;86330.56;;;22.35;67.84
81151;BME280;70629;-26.026;27.976;2024-02-23T00:06:25;86326.47;;;22.36;67.43
81151;BME280;70629;-26.026;27.976;2024-02-23T00:07:07;86327.13;;;22.32;67.88
81151;BME280;70629;-26.026;27.976;2024-02-23T00:07:47;86321.00;;;22.36;68.03
81151;BME280;70629;-26.026;27.976;2024-02-23T00:08:27;86324.44;;;22.41;67.67
81151;BME280;70629;-26.026;27.976;2024-02-23T00:09:07;86320.25;;;22.27;68.04
81151;BME280;70629;-26.026;27.976;2024-02-23T00:09:47;86312.06;;;22.33;67.52
81151;BME280;70629;-26.026;27.976;2024-02-23T00:10:26;86315.47;;;22.32;67.50
81151;BME280;70629;-26.026;27.976;2024-02-23T00:11:06;86326.34;;;22.18;67.81
81151;BME280;70629;-26.026;27.976;2024-02-23T00:11:46;86322.22;;;22.11;68.17
81151;BME280;70629;-26.026;27.976;2024-02-23T00:12:29;86309.25;;;22.19;68.41
81151;BME280;70629;-26.026;27.976;2024-02-23T00:13:09;86315.47;;;22.30;68.55
81151;BME280;70629;-26.026;27.976;2024-02-23T00:13:48;86316.78;;;22.19;68.13
81151;BME280;70629;-26.026;27.976;2024-02-23T00:14:30;86310.63;;;22.22;68.32
81151;BME280;70629;-26.026;27.976;2024-02-23T00:15:15;86307.22;;;22.24;68.43
81151;BME280;70629;-26.026;27.976;2024-02-23T00:15:55;86307.28;;;22.34;68.04
81151;BME280;70629;-26.026;27.976;2024-02-23T00:16:41;86308.53;;;22.15;68.46
81151;BME280;70629;-26.026;27.976;2024-02-23T00:17:21;86305.13;;;22.16;68.25
81151;BME280;70629;-26.026;27.976;2024-02-23T00:18:02;86304.44;;;22.18;68.63
81151;BME280;70629;-26.026;27.976;2024-02-23T00:18:43;86308.56;;;22.17;68.46
81151;BME280;70629;-26.026;27.976;2024-02-23T00:19:23;86303.78;;;22.23;68.25
81151;BME280;70629;-26.026;27.976;2024-02-23T00:20:03;86298.94;;;22.14;69.02
81151;BME280;70629;-26.026;27.976;2024-02-23T00:20:43;86305.75;;;22.03;69.34
81151;BME280;70629;-26.026;27.976;2024-02-23T00:21:23;86285.72;;;21.80;70.26
81151;BME280;70629;-26.026;27.976;2024-02-23T00:22:03;86298.66;;;21.69;70.48
81151;BME280;70629;-26.026;27.976;2024-02-23T00:22:46;86291.75;;;21.64;70.60
81151;BME280;70629;-26.026;27.976;2024-02-23T00:23:26;86299.94;;;21.58;70.98
81151;BME280;70629;-26.026;27.976;2024-02-23T00:24:08;86299.22;;;21.54;71.13
81151;BME280;70629;-26.026;27.976;2024-02-23T00:24:48;86296.50;;;21.56;71.16
81151;BME280;70629;-26.026;27.976;2024-02-23T00:25:28;86290.34;;;21.55;71.26
81151;BME280;70629;-26.026;27.976;2024-02-23T00:26:08;86291.06;;;21.64;71.17
81151;BME280;70629;-26.026;27.976;2024-02-23T00:26:48;86294.56;;;21.72;70.81
81151;BME280;70629;-26.026;27.976;2024-02-23T00:27:28;86295.97;;;21.77;70.64
81151;BME280;70629;-26.026;27.976;2024-02-23T00:28:08;86298.88;;;22.02;70.16
81151;BME280;70629;-26.026;27.976;2024-02-23T00:28:48;86298.97;;;22.18;69.62
81151;BME280;70629;-26.026;27.976;2024-02-23T00:29:28;86297.63;;;22.21;69.60
81151;BME280;70629;-26.026;27.976;2024-02-23T00:30:08;86303.00;;;22.03;69.91
81151;BME280;70629;-26.026;27.976;2024-02-23T00:30:48;86294.09;;;22.02;70.12
81151;BME280;70629;-26.026;27.976;2024-02-23T00:31:28;86292.03;;;22.03;70.21
81151;BME280;70629;-26.026;27.976;2024-02-23T00:32:08;86289.38;;;22.19;69.81
81151;BME280;70629;-26.026;27.976;2024-02-23T00:32:48;86295.50;;;22.09;69.47
81151;BME280;70629;-26.026;27.976;2024-02-23T00:33:27;86288.69;;;22.12;69.73
81151;BME280;70629;-26.026;27.976;2024-02-23T00:34:08;86295.56;;;22.17;69.31
81151;BME280;70629;-26.026;27.976;2024-02-23T00:34:52;86297.66;;;22.27;68.90
81151;BME280;70629;-26.026;27.976;2024-02-23T00:35:32;86295.50;;;22.09;69.22
81151;BME280;70629;-26.026;27.976;2024-02-23T00:36:12;86296.16;;;22.06;69.80
81151;BME280;70629;-26.026;27.976;2024-02-23T00:36:52;86297.59;;;22.15;69.56
81151;BME280;70629;-26.026;27.976;2024-02-23T00:37:32;86297.59;;;22.17;69.21
81151;BME280;70629;-26.026;27.976;2024-02-23T00:38:14;86292.09;;;22.11;69.33
81151;BME280;70629;-26.026;27.976;2024-02-23T00:38:54;86293.50;;;22.20;68.93
81151;BME280;70629;-26.026;27.976;2024-02-23T00:39:34;86293.44;;;22.08;69.72
81151;BME280;70629;-26.026;27.976;2024-02-23T00:40:15;86293.38;;;21.98;69.66
81151;BME280;70629;-26.026;27.976;2024-02-23T00:40:55;86291.84;;;21.76;70.35
81151;BME280;70629;-26.026;27.976;2024-02-23T00:41:35;86287.69;;;21.67;70.43
81151;BME280;70629;-26.026;27.976;2024-02-23T00:42:16;86286.28;;;21.62;70.78
81151;BME280;70629;-26.026;27.976;2024-02-23T00:42:56;86289.09;;;21.76;70.56
81151;BME280;70629;-26.026;27.976;2024-02-23T00:43:39;86291.13;;;21.70;70.35
81151;BME280;70629;-26.026;27.976;2024-02-23T00:44:19;86285.69;;;21.76;70.67
81151;BME280;70629;-26.026;27.976;2024-02-23T00:44:59;86293.28;;;21.87;70.63
81151;BME280;70629;-26.026;27.976;2024-02-23T00:45:39;86292.69;;;21.93;70.51
81151;BME280;70629;-26.026;27.976;2024-02-23T00:46:20;86289.28;;;22.01;70.04
81151;BME280;70629;-26.026;27.976;2024-02-23T00:47:00;86286.59;;;22.07;69.94
81151;BME280;70629;-26.026;27.976;2024-02-23T00:47:43;86292.03;;;21.99;69.86
81151;BME280;70629;-26.026;27.976;2024-02-23T00:48:23;86289.94;;;21.99;69.51
81151;BME280;70629;-26.026;27.976;2024-02-23T00:49:02;86295.50;;;22.07;69.35
81151;BME280;70629;-26.026;27.976;2024-02-23T00:49:43;86289.28;;;22.01;69.53
81151;BME280;70629;-26.026;27.976;2024-02-23T00:50:23;86293.31;;;21.92;69.69
81151;BME280;70629;-26.026;27.976;2024-02-23T00:51:05;86284.97;;;21.69;70.04
81151;BME280;70629;-26.026;27.976;2024-02-23T00:51:46;86284.88;;;21.61;70.65
81151;BME280;70629;-26.026;27.976;2024-02-23T00:52:26;86281.34;;;21.44;71.59
81151;BME280;70629;-26.026;27.976;2024-02-23T00:53:06;86286.19;;;21.50;71.37
81151;BME280;70629;-26.026;27.976;2024-02-23T00:53:46;86282.97;;;21.82;70.81
81151;BME280;70629;-26.026;27.976;2024-02-23T00:54:27;86291.25;;;21.92;70.45
81151;BME280;70629;-26.026;27.976;2024-02-23T00:55:07;86288.50;;;21.88;69.83
81151;BME280;70629;-26.026;27.976;2024-02-23T00:55:47;86286.56;;;22.03;69.49
81151;BME280;70629;-26.026;27.976;2024-02-23T00:56:28;86290.00;;;22.09;69.20
81151;BME280;70629;-26.026;27.976;2024-02-23T00:57:22;86287.06;;;21.75;70.39
81151;BME280;70629;-26.026;27.976;2024-02-23T00:58:06;86287.03;;;21.73;70.72
81151;BME280;70629;-26.026;27.976;2024-02-23T00:58:46;86285.72;;;21.82;70.28
81151;BME280;70629;-26.026;27.976;2024-02-23T00:59:26;86284.38;;;21.87;70.25
81151;BME280;70629;-26.026;27.976;2024-02-23T01:00:06;86289.19;;;21.90;70.24
81151;BME280;70629;-26.026;27.976;2024-02-23T01:00:48;86287.06;;;21.77;70.38
81151;BME280;70629;-26.026;27.976;2024-02-23T01:01:28;86287.13;;;21.87;69.82
81151;BME280;70629;-26.026;27.976;2024-02-23T01:02:08;86289.13;;;21.80;70.34
81151;BME280;70629;-26.026;27.976;2024-02-23T01:02:48;86288.28;;;21.58;70.76
81151;BME280;70629;-26.026;27.976;2024-02-23T01:03:28;86286.03;;;21.28;72.24
81151;BME280;70629;-26.026;27.976;2024-02-23T01:04:08;86293.53;;;21.29;72.36
81151;BME280;70629;-26.026;27.976;2024-02-23T01:04:48;86292.91;;;21.35;72.43
81151;BME280;70629;-26.026;27.976;2024-02-23T01:05:28;86288.31;;;21.60;71.83
81151;BME280;70629;-26.026;27.976;2024-02-23T01:06:08;86293.88;;;21.72;71.31
81151;BME280;70629;-26.026;27.976;2024-02-23T01:06:48;86293.22;;;21.77;70.85
81151;BME280;70629;-26.026;27.976;2024-02-23T01:07:28;86286.56;;;21.99;70.36
81151;BME280;70629;-26.026;27.976;2024-02-23T01:08:10;86290.66;;;21.98;70.19
81151;BME280;70629;-26.026;27.976;2024-02-23T01:08:50;86284.38;;;21.85;70.15
81151;BME280;70629;-26.026;27.976;2024-02-23T01:09:30;86290.50;;;21.81;70.21
81151;BME280;70629;-26.026;27.976;2024-02-23T01:10:10;86289.84;;;21.85;70.28
81151;BME280;70629;-26.026;27.976;2024-02-23T01:10:50;86292.72;;;22.01;69.84
81151;BME280;70629;-26.026;27.976;2024-02-23T01:11:30;86292.03;;;22.01;70.03
81151;BME280;70629;-26.026;27.976;2024-02-23T01:12:10;86286.47;;;21.88;70.32
81151;BME280;70629;-26.026;27.976;2024-02-23T01:12:50;86286.44;;;21.86;70.34
81151;BME280;70629;-26.026;27.976;2024-02-23T01:13:30;86290.41;;;21.67;70.93
81151;BME280;70629;-26.026;27.976;2024-02-23T01:14:10;86286.38;;;21.78;70.86
81151;BME280;70629;-26.026;27.976;2024-02-23T01:14:50;86289.09;;;21.74;70.92
81151;BME280;70629;-26.026;27.976;2024-02-23T01:15:29;86294.50;;;21.66;71.24
81151;BME280;70629;-26.026;27.976;2024-02-23T01:16:09;86292.44;;;21.61;71.20
81151;BME280;70629;-26.026;27.976;2024-02-23T01:16:49;86284.94;;;21.65;70.91
81151;BME280;70629;-26.026;27.976;2024-02-23T01:17:29;86291.16;;;21.74;71.08
81151;BME280;70629;-26.026;27.976;2024-02-23T01:18:09;86291.81;;;21.72;71.19
81151;BME280;70629;-26.026;27.976;2024-02-23T01:18:49;86297.31;;;21.74;70.82
81151;BME280;70629;-26.026;27.976;2024-02-23T01:19:29;86289.78;;;21.75;70.54
81151;BME280;70629;-26.026;27.976;2024-02-23T01:20:09;86277.44;;;21.72;70.97
81151;BME280;70629;-26.026;27.976;2024-02-23T01:20:49;86284.84;;;21.53;71.81
81151;BME280;70629;-26.026;27.976;2024-02-23T01:21:29;86293.59;;;21.35;72.42
81151;BME280;70629;-26.026;27.976;2024-02-23T01:22:09;86289.34;;;21.16;73.04
81151;BME280;70629;-26.026;27.976;2024-02-23T01:22:49;86294.84;;;21.20;73.14
81151;BME280;70629;-26.026;27.976;2024-02-23T01:23:29;86292.94;;;21.39;72.73
81151;BME280;70629;-26.026;27.976;2024-02-23T01:24:09;86291.63;;;21.48;72.34
81151;BME280;70629;-26.026;27.976;2024-02-23T01:24:48;86290.34;;;21.57;72.01
81151;BME280;70629;-26.026;27.976;2024-02-23T01:25:29;86288.97;;;21.56;71.69
81151;BME280;70629;-26.026;27.976;2024-02-23T01:26:08;86291.78;;;21.68;71.26
81151;BME280;70629;-26.026;27.976;2024-02-23T01:26:48;86288.38;;;21.72;71.21
81151;BME280;70629;-26.026;27.976;2024-02-23T01:27:28;86290.50;;;21.79;71.07
81151;BME280;70629;-26.026;27.976;2024-02-23T01:28:08;86287.44;;;21.35;72.09
81151;BME280;70629;-26.026;27.976;2024-02-23T01:28:48;86295.50;;;21.17;73.25
81151;BME280;70629;-26.026;27.976;2024-02-23T01:29:27;86286.72;;;21.30;72.85
81151;BME280;70629;-26.026;27.976;2024-02-23T01:30:08;86293.03;;;21.51;72.20
81151;BME280;70629;-26.026;27.976;2024-02-23T01:30:48;86284.84;;;21.53;71.95
81151;BME280;70629;-26.026;27.976;2024-02-23T01:31:28;86282.00;;;21.37;72.53
81151;BME280;70629;-26.026;27.976;2024-02-23T01:32:07;86280.59;;;21.34;72.54
81151;BME280;70629;-26.026;27.976;2024-02-23T01:32:48;86286.09;;;21.36;72.49
81151;BME280;70629;-26.026;27.976;2024-02-23T01:33:30;86285.41;;;21.37;72.79
81151;BME280;70629;-26.026;27.976;2024-02-23T01:34:10;86282.03;;;21.47;72.04
81151;BME280;70629;-26.026;27.976;2024-02-23T01:34:50;86276.69;;;21.59;71.53
81151;BME280;70629;-26.026;27.976;2024-02-23T01:35:30;86279.41;;;21.59;71.70
81151;BME280;70629;-26.026;27.976;2024-02-23T01:36:10;86276.00;;;21.61;71.37
81151;BME280;70629;-26.026;27.976;2024-02-23T01:36:50;86279.50;;;21.69;70.93
81151;BME280;70629;-26.026;27.976;2024-02-23T01:37:30;86276.69;;;21.61;71.04
81151;BME280;70629;-26.026;27.976;2024-02-23T01:38:09;86280.84;;;21.68;70.86
81151;BME280;70629;-26.026;27.976;2024-02-23T01:38:50;86283.50;;;21.58;71.50
81151;BME280;70629;-26.026;27.976;2024-02-23T01:39:29;86278.69;;;21.57;70.98
81151;BME280;70629;-26.026;27.976;2024-02-23T01:40:09;86276.56;;;21.47;71.42
81151;BME280;70629;-26.026;27.976;2024-02-23T01:40:49;86280.16;;;21.68;71.23
81151;BME280;70629;-26.026;27.976;2024-02-23T01:41:29;86278.72;;;21.59;71.38
81151;BME280;70629;-26.026;27.976;2024-02-23T01:42:09;86282.91;;;21.70;71.50
81151;BME280;70629;-26.026;27.976;2024-02-23T01:42:49;86281.50;;;21.65;71.07
81151;BME280;70629;-26.026;27.976;2024-02-23T01:43:40;86279.41;;;21.61;71.07
81151;BME280;70629;-26.026;27.976;2024-02-23T01:44:20;86280.56;;;21.30;72.34
81151;BME280;70629;-26.026;27.976;2024-02-23T01:45:01;86284.72;;;21.37;72.76
81151;BME280;70629;-26.026;27.976;2024-02-23T01:45:41;86276.56;;;21.47;72.60
81151;BME280;70629;-26.026;27.976;2024-02-23T01:46:21;86278.75;;;21.61;72.19
81151;BME280;70629;-26.026;27.976;2024-02-23T01:47:01;86284.88;;;21.61;71.21
81151;BME280;70629;-26.026;27.976;2024-02-23T01:47:42;86286.78;;;21.38;71.97
81151;BME280;70629;-26.026;27.976;2024-02-23T01:48:21;86287.94;;;21.13;72.85
81151;BME280;70629;-26.026;27.976;2024-02-23T01:49:01;86284.44;;;21.05;73.17
81151;BME280;70629;-26.026;27.976;2024-02-23T01:49:43;86283.75;;;21.04;73.32
81151;BME280;70629;-26.026;27.976;2024-02-23T01:50:25;86285.97;;;21.24;72.75
81151;BME280;70629;-26.026;27.976;2024-02-23T01:51:05;86282.66;;;21.35;72.20
81151;BME280;70629;-26.026;27.976;2024-02-23T01:51:45;86287.41;;;21.31;72.93
81151;BME280;70629;-26.026;27.976;2024-02-23T01:52:25;86288.88;;;21.44;72.18
81151;BME280;70629;-26.026;27.976;2024-02-23T01:53:05;86288.31;;;21.60;71.88
81151;BME280;70629;-26.026;27.976;2024-02-23T01:53:45;86279.38;;;21.51;71.94
81151;BME280;70629;-26.026;27.976;2024-02-23T01:54:25;86277.75;;;21.22;72.45
81151;BME280;70629;-26.026;27.976;2024-02-23T01:55:09;86278.25;;;21.02;73.44
81151;BME280;70629;-26.026;27.976;2024-02-23T01:55:50;86280.78;;;20.80;74.25
81151;BME280;70629;-26.026;27.976;2024-02-23T01:56:32;86281.44;;;20.78;74.40
81151;BME280;70629;-26.026;27.976;2024-02-23T01:57:12;86272.56;;;20.80;74.41
81151;BME280;70629;-26.026;27.976;2024-02-23T01:58:13;86273.41;;;20.96;73.85
81151;BME280;70629;-26.026;27.976;2024-02-23T01:58:55;86278.31;;;21.08;73.77
81151;BME280;70629;-26.026;27.976;2024-02-23T01:59:38;86276.16;;;21.00;73.48
81151;BME280;70629;-26.026;27.976;2024-02-23T02:00:20;86274.09;;;20.95;73.83
81151;BME280;70629;-26.026;27.976;2024-02-23T02:01:04;86266.75;;;21.16;73.18
81151;BME280;70629;-26.026;27.976;2024-02-23T02:01:45;86277.13;;;21.29;73.23
81151;BME280;70629;-26.026;27.976;2024-02-23T02:02:25;86274.38;;;21.29;72.69
81151;BME280;70629;-26.026;27.976;2024-02-23T02:03:05;86275.75;;;21.28;72.39
81151;BME280;70629;-26.026;27.976;2024-02-23T02:03:50;86275.19;;;21.42;72.25
81151;BME280;70629;-26.026;27.976;2024-02-23T02:04:30;86281.34;;;21.44;71.85
81151;BME280;70629;-26.026;27.976;2024-02-23T02:05:10;86283.81;;;21.12;72.51
81151;BME280;70629;-26.026;27.976;2024-02-23T02:05:51;86287.94;;;21.15;73.06
81151;BME280;70629;-26.026;27.976;2024-02-23T02:06:32;86274.78;;;20.97;73.42
81151;BME280;70629;-26.026;27.976;2024-02-23T02:07:12;86287.06;;;20.94;73.79
81151;BME280;70629;-26.026;27.976;2024-02-23T02:07:53;86287.19;;;21.11;73.51
81151;BME280;70629;-26.026;27.976;2024-02-23T02:08:38;86284.69;;;21.35;72.73
81151;BME280;70629;-26.026;27.976;2024-02-23T02:09:18;86285.31;;;21.25;72.52
81151;BME280;70629;-26.026;27.976;2024-02-23T02:09:58;86290.09;;;21.23;73.13
81151;BME280;70629;-26.026;27.976;2024-02-23T02:10:39;86290.03;;;21.17;73.06
81151;BME280;70629;-26.026;27.976;2024-02-23T02:11:18;86293.41;;;21.13;73.32
81151;BME280;70629;-26.026;27.976;2024-02-23T02:11:59;86292.47;;;20.88;74.08
81151;BME280;70629;-26.026;27.976;2024-02-23T02:12:39;86296.38;;;20.69;74.40
81151;BME280;70629;-26.026;27.976;2024-02-23T02:13:19;86295.13;;;20.80;74.40
81151;BME280;70629;-26.026;27.976;2024-02-23T02:13:58;86294.47;;;20.84;74.20
81151;BME280;70629;-26.026;27.976;2024-02-23T02:14:38;86300.63;;;20.84;74.19
81151;BME280;70629;-26.026;27.976;2024-02-23T02:15:18;86299.38;;;20.97;73.90
81151;BME280;70629;-26.026;27.976;2024-02-23T02:16:01;86303.56;;;21.07;73.31
81151;BME280;70629;-26.026;27.976;2024-02-23T02:16:44;86300.75;;;20.96;73.98
81151;BME280;70629;-26.026;27.976;2024-02-23T02:17:24;86300.59;;;20.80;74.16
81151;BME280;70629;-26.026;27.976;2024-02-23T02:18:05;86310.16;;;20.79;74.61
81151;BME280;70629;-26.026;27.976;2024-02-23T02:18:45;86306.09;;;20.86;74.57
81151;BME280;70629;-26.026;27.976;2024-02-23T02:19:25;86303.56;;;21.07;74.01
81151;BME280;70629;-26.026;27.976;2024-02-23T02:20:05;86302.34;;;21.18;73.55
81151;BME280;70629;-26.026;27.976;2024-02-23T02:20:57;86297.56;;;21.20;73.62
81151;BME280;70629;-26.026;27.976;2024-02-23T02:21:37;86302.31;;;21.16;73.57
81151;BME280;70629;-26.026;27.976;2024-02-23T02:22:17;86305.69;;;21.12;73.56
81151;BME280;70629;-26.026;27.976;2024-02-23T02:22:57;86303.81;;;21.31;72.95
81151;BME280;70629;-26.026;27.976;2024-02-23T02:23:37;86302.31;;;21.16;73.01
81151;BME280;70629;-26.026;27.976;2024-02-23T02:24:18;86296.19;;;21.17;73.23
81151;BME280;70629;-26.026;27.976;2024-02-23T02:24:57;86299.00;;;21.27;72.80
81151;BME280;70629;-26.026;27.976;2024-02-23T02:25:38;86297.75;;;21.42;72.18
81151;BME280;70629;-26.026;27.976;2024-02-23T02:26:17;86294.28;;;21.38;72.40
81151;BME280;70629;-26.026;27.976;2024-02-23T02:26:58;86301.75;;;21.29;72.39
81151;BME280;70629;-26.026;27.976;2024-02-23T02:27:38;86296.94;;;21.26;72.58
81151;BME280;70629;-26.026;27.976;2024-02-23T02:28:18;86305.09;;;21.20;72.80
81151;BME280;70629;-26.026;27.976;2024-02-23T02:28:58;86300.84;;;21.05;73.22
81151;BME280;70629;-26.026;27.976;2024-02-23T02:29:38;86295.38;;;21.05;73.31
81151;BME280;70629;-26.026;27.976;2024-02-23T02:30:18;86295.22;;;20.92;73.86
81151;BME280;70629;-26.026;27.976;2024-02-23T02:30:59;86300.25;;;21.14;73.33
81151;BME280;70629;-26.026;27.976;2024-02-23T02:31:38;86296.84;;;21.14;73.08
81151;BME280;70629;-26.026;27.976;2024-02-23T02:32:18;86294.72;;;21.10;73.23
81151;BME280;70629;-26.026;27.976;2024-02-23T02:32:58;86300.19;;;21.08;73.17
81151;BME280;70629;-26.026;27.976;2024-02-23T02:33:40;86296.97;;;21.30;72.69
81151;BME280;70629;-26.026;27.976;2024-02-23T02:34:20;86297.50;;;21.14;72.92
81151;BME280;70629;-26.026;27.976;2024-02-23T02:35:01;86304.75;;;20.87;74.25
81151;BME280;70629;-26.026;27.976;2024-02-23T02:35:40;86300.84;;;21.05;74.18
81151;BME280;70629;-26.026;27.976;2024-02-23T02:36:20;86303.56;;;21.05;74.18
81151;BME280;70629;-26.026;27.976;2024-02-23T02:37:01;86306.50;;;21.25;73.29
81151;BME280;70629;-26.026;27.976;2024-02-23T02:37:40;86300.84;;;21.05;73.58
81151;BME280;70629;-26.026;27.976;2024-02-23T02:38:20;86296.00;;;21.01;73.76
81151;BME280;70629;-26.026;27.976;2024-02-23T02:39:00;86300.69;;;20.90;74.08
81151;BME280;70629;-26.026;27.976;2024-02-23T02:39:41;86295.16;;;20.86;74.28
81151;BME280;70629;-26.026;27.976;2024-02-23T02:40:21;86300.59;;;20.80;74.58
81151;BME280;70629;-26.026;27.976;2024-02-23T02:41:01;86304.16;;;20.95;73.85
81151;BME280;70629;-26.026;27.976;2024-02-23T02:41:41;86296.75;;;21.10;73.68
81151;BME280;70629;-26.026;27.976;2024-02-23T02:42:21;86288.56;;;21.10;73.92
81151;BME280;70629;-26.026;27.976;2024-02-23T02:43:00;86296.09;;;21.09;73.66
81151;BME280;70629;-26.026;27.976;2024-02-23T02:43:40;86293.91;;;20.97;73.93
81151;BME280;70629;-26.026;27.976;2024-02-23T02:44:20;86293.88;;;20.93;74.16
81151;BME280;70629;-26.026;27.976;2024-02-23T02:45:00;86289.81;;;20.94;74.27
81151;BME280;70629;-26.026;27.976;2024-02-23T02:45:42;86296.69;;;21.01;73.63
81151;BME280;70629;-26.026;27.976;2024-02-23T02:46:23;86294.50;;;20.88;74.39
81151;BME280;70629;-26.026;27.976;2024-02-23T02:47:02;86298.47;;;20.75;74.75
81151;BME280;70629;-26.026;27.976;2024-02-23T02:47:42;86299.19;;;20.75;74.76
81151;BME280;70629;-26.026;27.976;2024-02-23T02:48:22;86304.09;;;20.89;74.29
81151;BME280;70629;-26.026;27.976;2024-02-23T02:49:02;86303.44;;;20.92;74.00
81151;BME280;70629;-26.026;27.976;2024-02-23T02:49:43;86310.38;;;21.03;73.80
81151;BME280;70629;-26.026;27.976;2024-02-23T02:50:23;86305.50;;;20.96;73.66
81151;BME280;70629;-26.026;27.976;2024-02-23T02:51:03;86313.25;;;21.14;73.22
81151;BME280;70629;-26.026;27.976;2024-02-23T02:51:42;86312.66;;;21.23;72.56
81151;BME280;70629;-26.026;27.976;2024-02-23T02:52:24;86318.75;;;21.20;72.75
81151;BME280;70629;-26.026;27.976;2024-02-23T02:53:04;86318.41;;;20.85;73.79
81151;BME280;70629;-26.026;27.976;2024-02-23T02:53:44;86316.34;;;20.84;73.75
81151;BME280;70629;-26.026;27.976;2024-02-23T02:54:24;86315.56;;;20.75;74.21
81151;BME280;70629;-26.026;27.976;2024-02-23T02:55:04;86310.13;;;20.77;74.21
81151;BME280;70629;-26.026;27.976;2024-02-23T02:55:45;86311.53;;;20.82;74.09
81151;BME280;70629;-26.026;27.976;2024-02-23T02:56:25;86309.97;;;20.63;74.23
81151;BME280;70629;-26.026;27.976;2024-02-23T02:57:05;86312.53;;;20.49;74.83
81151;BME280;70629;-26.026;27.976;2024-02-23T02:57:45;86307.72;;;20.45;75.47
81151;BME280;70629;-26.026;27.976;2024-02-23T02:58:25;86304.22;;;20.39;75.33
81151;BME280;70629;-26.026;27.976;2024-02-23T02:59:04;86312.38;;;20.33;75.55
81151;BME280;70629;-26.026;27.976;2024-02-23T02:59:44;86313.78;;;20.38;75.99
81151;BME280;70629;-26.026;27.976;2024-02-23T03:00:25;86317.94;;;20.43;75.78
81151;BME280;70629;-26.026;27.976;2024-02-23T03:01:05;86319.88;;;20.34;76.23
81151;BME280;70629;-26.026;27.976;2024-02-23T03:01:45;86317.66;;;20.23;76.62
81151;BME280;70629;-26.026;27.976;2024-02-23T03:02:26;86322.91;;;20.06;77.58
81151;BME280;70629;-26.026;27.976;2024-02-23T03:03:06;86327.06;;;20.09;77.62
81151;BME280;70629;-26.026;27.976;2024-02-23T03:03:46;86331.28;;;20.19;77.33
81151;BME280;70629;-26.026;27.976;2024-02-23T03:04:26;86331.31;;;20.23;77.25
81151;BME280;70629;-26.026;27.976;2024-02-23T03:05:06;86329.50;;;20.37;76.74
81151;BME280;70629;-26.026;27.976;2024-02-23T03:05:46;86328.84;;;20.41;75.93
81151;BME280;70629;-26.026;27.976;2024-02-23T03:06:26;86328.03;;;20.30;76.35
81151;BME280;70629;-26.026;27.976;2024-02-23T03:07:06;86330.13;;;20.34;76.85
81151;BME280;70629;-26.026;27.976;2024-02-23T03:07:46;86322.84;;;20.52;76.74
81151;BME280;70629;-26.026;27.976;2024-02-23T03:08:26;86328.47;;;20.69;75.55
81151;BME280;70629;-26.026;27.976;2024-02-23T03:09:05;86331.94;;;20.71;74.68
81151;BME280;70629;-26.026;27.976;2024-02-23T03:09:46;86334.72;;;20.75;74.75
81151;BME280;70629;-26.026;27.976;2024-02-23T03:10:26;86322.28;;;20.64;74.93
81151;BME280;70629;-26.026;27.976;2024-02-23T03:11:06;86317.38;;;20.54;75.40
81151;BME280;70629;-26.026;27.976;2024-02-23T03:11:46;86335.81;;;20.54;75.28
81151;BME280;70629;-26.026;27.976;2024-02-23T03:12:26;86335.94;;;20.62;74.97
81151;BME280;70629;-26.026;27.976;2024-02-23T03:13:06;86335.13;;;20.53;74.94
81151;BME280;70629;-26.026;27.976;2024-02-23T03:13:45;86335.13;;;20.51;74.92
81151;BME280;70629;-26.026;27.976;2024-02-23T03:14:25;86336.59;;;20.63;74.42
81151;BME280;70629;-26.026;27.976;2024-02-23T03:15:05;86340.13;;;20.73;74.31
81151;BME280;70629;-26.026;27.976;2024-02-23T03:15:46;86337.38;;;20.69;74.46
81151;BME280;70629;-26.026;27.976;2024-02-23T03:16:29;86337.16;;;20.53;74.82
81151;BME280;70629;-26.026;27.976;2024-02-23T03:17:10;86339.22;;;20.52;74.92
81151;BME280;70629;-26.026;27.976;2024-02-23T03:17:50;86341.22;;;20.48;74.99
81151;BME280;70629;-26.026;27.976;2024-02-23T03:18:30;86341.78;;;20.38;75.74
81151;BME280;70629;-26.026;27.976;2024-02-23T03:19:10;86339.25;;;20.54;75.31
81151;BME280;70629;-26.026;27.976;2024-02-23T03:19:50;86342.72;;;20.59;74.55
81151;BME280;70629;-26.026;27.976;2024-02-23T03:20:30;86337.97;;;20.64;74.50
81151;BME280;70629;-26.026;27.976;2024-02-23T03:21:10;86341.91;;;20.48;75.15
81151;BME280;70629;-26.026;27.976;2024-02-23T03:21:50;86337.53;;;20.27;76.13
81151;BME280;70629;-26.026;27.976;2024-02-23T03:22:30;86340.78;;;20.15;76.85
81151;BME280;70629;-26.026;27.976;2024-02-23T03:23:10;86340.16;;;20.21;76.71
81151;BME280;70629;-26.026;27.976;2024-02-23T03:23:50;86345.16;;;20.35;76.30
81151;BME280;70629;-26.026;27.976;2024-02-23T03:24:30;86341.88;;;20.46;76.13
81151;BME280;70629;-26.026;27.976;2024-02-23T03:25:10;86339.97;;;20.57;75.01
81151;BME280;70629;-26.026;27.976;2024-02-23T03:25:50;86344.72;;;20.54;74.99
81151;BME280;70629;-26.026;27.976;2024-02-23T03:26:30;86348.13;;;20.55;75.42
81151;BME280;70629;-26.026;27.976;2024-02-23T03:27:11;86353.63;;;20.59;75.40
81151;BME280;70629;-26.026;27.976;2024-02-23T03:27:51;86347.34;;;20.46;75.82
81151;BME280;70629;-26.026;27.976;2024-02-23T03:28:31;86340.44;;;20.39;75.99
81151;BME280;70629;-26.026;27.976;2024-02-23T03:29:11;86352.69;;;20.36;76.05